Terminal Aerodrome Forecast
Issued by NWS

Home | Current Version | Previous Version | Text Only | Print | Product List | Glossary On
Versions: 1 2 3 4 5 6 7 8 9 10 11 12 13 14 15 16 17 18 19 20 21 22 23 24 25 26 27 28 29 30 31 32 33 34 35 36 37 38 39 40 41 42 43 44 45 46 47 48 49
000
FTAK31 PAFA 062339
TAFAUN
TAF
PAUN 062339Z 0700/0724 12020KT P6SM OVC040
      TEMPO 0701/0703 18020KT 1SM -SN BR VV010
     FM070300 20018G28KT 1SM -SN BLSN BR BKN007 OVC015
     FM070600 20018KT 2SM -SN BLSN BR SCT005 BKN015 OVC030=

USA.gov is the U.S. government's official web portal to all federal, state and local government web resources and services.